createdAt,value
2023-04-15T00:02:26.407Z,97028.13
2023-04-15T00:04:55.144Z,97023.09
2023-04-15T00:07:23.766Z,97024.75
2023-04-15T00:09:55.235Z,97021.28
2023-04-15T00:12:23.633Z,97022.19
2023-04-15T00:14:52.630Z,97013.63
2023-04-15T00:17:21.173Z,97023.84
2023-04-15T00:19:51.149Z,97023.84
2023-04-15T00:22:19.823Z,97017.91
2023-04-15T00:24:48.279Z,97022.22
2023-04-15T00:27:16.524Z,97020.53
2023-04-15T00:29:44.938Z,97008.63
2023-04-15T00:32:14.186Z,97000.19
2023-04-15T00:34:43.337Z,97008.53
2023-04-15T00:37:12.996Z,97001.75
2023-04-15T00:39:41.495Z,96991.63
2023-04-15T00:42:10.985Z,97001.09
2023-04-15T00:44:39.491Z,96996.81
2023-04-15T00:47:08.545Z,96996.81
2023-04-15T00:49:37.275Z,96991.78
2023-04-15T00:52:06.284Z,96988.41
2023-04-15T00:54:36.693Z,97000.34
2023-04-15T00:57:07.506Z,96986.00
2023-04-15T00:59:36.192Z,96992.00
2023-04-15T01:02:04.902Z,96986.06
2023-04-15T01:04:33.993Z,96986.91
2023-04-15T01:07:02.772Z,96989.44
2023-04-15T01:09:31.498Z,96981.88
2023-04-15T01:12:02.788Z,96987.00
2023-04-15T01:14:31.836Z,96982.63
2023-04-15T01:17:00.062Z,96981.88
2023-04-15T01:19:28.736Z,96987.88
2023-04-15T01:21:57.878Z,96990.41
2023-04-15T01:24:29.122Z,96986.06
2023-04-15T01:26:59.507Z,96980.13
2023-04-15T01:29:28.057Z,96979.25
2023-04-15T01:31:57.807Z,96975.03
2023-04-15T01:34:26.604Z,96968.25
2023-04-15T01:36:54.974Z,96977.59
2023-04-15T01:39:23.798Z,96968.34
2023-04-15T01:41:52.325Z,96967.44
2023-04-15T01:44:22.073Z,96966.66
2023-04-15T01:46:50.825Z,96959.88
2023-04-15T01:49:19.184Z,96964.09
2023-04-15T01:51:47.861Z,96969.25
2023-04-15T01:54:17.142Z,96968.41
2023-04-15T01:56:45.321Z,96970.97
2023-04-15T01:59:13.945Z,96959.84
2023-04-15T02:01:44.057Z,96966.53
2023-04-15T02:04:16.733Z,96964.06
2023-04-15T02:06:45.128Z,96958.19
2023-04-15T02:09:14.710Z,96956.28
2023-04-15T02:11:43.207Z,96957.22
2023-04-15T02:14:11.878Z,96953.72
2023-04-15T02:16:40.818Z,96955.50
2023-04-15T02:19:10.690Z,96954.75
2023-04-15T02:21:40.140Z,96946.41
2023-04-15T02:24:08.694Z,96958.16
2023-04-15T02:26:37.599Z,96961.59
2023-04-15T02:29:05.975Z,96965.78
2023-04-15T02:31:37.366Z,96949.13
2023-04-15T02:34:06.572Z,96968.50
2023-04-15T02:36:36.451Z,96970.16
2023-04-15T02:39:05.480Z,96966.75
2023-04-15T02:41:33.856Z,96963.41
2023-04-15T02:44:02.650Z,96968.50
2023-04-15T02:46:30.945Z,96961.66
2023-04-15T02:49:00.473Z,96965.06
2023-04-15T02:51:32.712Z,96960.78
2023-04-15T02:54:02.435Z,96961.66
2023-04-15T02:56:31.196Z,96962.41
2023-04-15T02:58:59.787Z,96962.41
2023-04-15T03:01:28.741Z,96965.88
2023-04-15T03:03:57.399Z,96954.06
2023-04-15T03:06:26.504Z,96959.78
2023-04-15T03:08:55.193Z,96965.81
2023-04-15T03:11:25.378Z,96958.91
2023-04-15T03:13:53.814Z,96958.13
2023-04-15T03:16:22.447Z,96960.69
2023-04-15T03:18:50.642Z,96960.69
2023-04-15T03:21:20.047Z,96959.94
2023-04-15T03:23:50.083Z,96939.75
2023-04-15T03:26:28.458Z,96959.09
2023-04-15T03:28:56.996Z,96961.66
2023-04-15T03:31:25.349Z,96964.06
2023-04-15T03:33:53.730Z,96961.53
2023-04-15T03:36:22.682Z,96956.44
2023-04-15T03:38:51.096Z,96955.56
2023-04-15T03:41:19.724Z,96944.47
2023-04-15T03:43:49.719Z,96959.66
2023-04-15T03:46:18.788Z,96951.13
2023-04-15T03:48:47.305Z,96954.53
2023-04-15T03:51:15.793Z,96951.97
2023-04-15T03:53:44.078Z,96955.41
2023-04-15T03:56:12.086Z,96954.59
2023-04-15T03:58:40.457Z,96955.50
2023-04-15T04:01:10.792Z,96946.94
2023-04-15T04:03:39.037Z,96951.09
2023-04-15T04:06:08.169Z,96945.31
2023-04-15T04:08:36.437Z,96943.50
2023-04-15T04:11:04.911Z,96957.75
2023-04-15T04:13:33.302Z,96956.91
2023-04-15T04:16:02.073Z,96952.78
2023-04-15T04:18:31.744Z,96957.69
2023-04-15T04:21:00.190Z,96960.25
2023-04-15T04:23:28.417Z,96957.75
2023-04-15T04:25:56.520Z,96965.31
2023-04-15T04:28:24.931Z,96963.66
2023-04-15T04:30:53.186Z,96969.72
2023-04-15T04:33:21.293Z,96968.97
2023-04-15T04:35:51.126Z,96967.22
2023-04-15T04:38:19.370Z,96969.09
2023-04-15T04:40:47.986Z,96969.75
2023-04-15T04:43:16.187Z,96964.66
2023-04-15T04:45:44.382Z,96969.84
2023-04-15T04:48:12.547Z,96962.19
2023-04-15T04:50:40.941Z,96972.31
2023-04-15T04:53:10.510Z,96968.97
2023-04-15T04:55:38.791Z,96970.69
2023-04-15T04:58:07.161Z,96970.69
2023-04-15T05:00:35.448Z,96970.69
2023-04-15T05:03:03.837Z,96968.94
2023-04-15T05:05:32.699Z,96968.03
2023-04-15T05:08:01.009Z,96972.25
2023-04-15T05:10:30.637Z,96966.16
2023-04-15T05:12:59.400Z,96968.56
2023-04-15T05:15:27.610Z,96967.66
2023-04-15T05:17:55.730Z,96970.09
2023-04-15T05:20:24.143Z,96969.22
2023-04-15T05:22:52.317Z,96972.59
2023-04-15T05:25:21.336Z,96975.88
2023-04-15T05:27:50.733Z,96976.56
2023-04-15T05:30:19.258Z,96985.91
2023-04-15T05:32:47.635Z,96979.78
2023-04-15T05:35:15.940Z,96982.41
2023-04-15T05:37:44.733Z,96980.53
2023-04-15T05:40:13.464Z,96983.00
2023-04-15T05:42:41.596Z,96985.50
2023-04-15T05:45:12.402Z,96981.28
2023-04-15T05:47:40.631Z,96990.53
2023-04-15T05:50:09.602Z,96991.44
2023-04-15T05:52:38.266Z,96994.00
2023-04-15T05:55:07.194Z,96993.22
2023-04-15T05:57:35.450Z,96991.59
2023-04-15T06:00:03.790Z,97003.47
2023-04-15T06:02:33.657Z,96997.66
2023-04-15T06:05:02.394Z,97002.84
2023-04-15T06:07:31.312Z,96999.47
2023-04-15T06:09:59.592Z,97000.53
2023-04-15T06:12:28.806Z,96992.97
2023-04-15T06:14:59.942Z,97006.56
2023-04-15T06:17:28.584Z,97002.38
2023-04-15T06:19:58.272Z,97005.00
2023-04-15T06:22:26.856Z,97003.34
2023-04-15T06:24:56.040Z,97008.44
2023-04-15T06:27:24.726Z,97009.94
2023-04-15T06:29:53.210Z,97006.34
2023-04-15T06:32:21.591Z,97012.19
2023-04-15T06:34:49.732Z,97006.94
2023-04-15T06:37:19.402Z,97003.53
2023-04-15T06:39:49.219Z,96996.88
2023-04-15T06:42:17.677Z,97007.75
2023-04-15T06:44:45.973Z,97007.75
2023-04-15T06:47:14.882Z,97010.25
2023-04-15T06:49:43.350Z,97011.13
2023-04-15T06:52:12.866Z,97010.91
2023-04-15T06:54:42.604Z,97001.50
2023-04-15T06:57:10.979Z,97001.34
2023-04-15T06:59:39.387Z,97013.13
2023-04-15T07:02:11.139Z,97012.22
2023-04-15T07:04:40.374Z,97010.63
2023-04-15T07:07:09.738Z,97016.44
2023-04-15T07:09:37.811Z,97017.25
2023-04-15T07:12:07.502Z,97019.16
2023-04-15T07:14:35.716Z,97012.91
2023-04-15T07:17:03.985Z,97015.38
2023-04-15T07:19:32.349Z,97016.03
2023-04-15T07:22:01.133Z,97011.84
2023-04-15T07:24:29.308Z,97007.53
2023-04-15T07:26:59.574Z,96998.75
2023-04-15T07:29:30.465Z,97010.75
2023-04-15T07:31:58.855Z,97013.06
2023-04-15T07:34:27.137Z,97009.06
2023-04-15T07:36:55.425Z,97004.31
2023-04-15T07:39:23.910Z,97009.31
2023-04-15T07:41:52.367Z,97008.97
2023-04-15T07:44:20.728Z,97013.44
2023-04-15T07:46:50.342Z,97008.41
2023-04-15T07:49:27.760Z,97008.88
2023-04-15T07:51:57.727Z,97003.25
2023-04-15T07:54:26.307Z,97002.97
2023-04-15T07:56:54.613Z,97015.69
2023-04-15T07:59:23.096Z,97013.28
2023-04-15T08:01:52.892Z,97011.94
2023-04-15T08:04:21.210Z,97017.53
2023-04-15T08:06:50.568Z,97013.91
2023-04-15T08:09:19.148Z,97010.25
2023-04-15T08:11:50.150Z,97022.47
2023-04-15T08:14:19.028Z,97016.69
2023-04-15T08:16:47.270Z,96996.03
2023-04-15T08:19:17.424Z,97023.63
2023-04-15T08:21:45.868Z,97018.00
2023-04-15T08:24:14.585Z,97021.63
2023-04-15T08:26:43.559Z,97029.16
2023-04-15T08:29:11.944Z,97033.25
2023-04-15T08:31:40.337Z,97034.97
2023-04-15T08:34:09.366Z,97036.94
2023-04-15T08:36:39.428Z,97042.53
2023-04-15T08:39:08.569Z,97031.75
2023-04-15T08:41:46.885Z,97042.72
2023-04-15T08:44:16.300Z,97047.25
2023-04-15T08:46:44.858Z,97047.47
2023-04-15T08:49:14.439Z,97036.53
2023-04-15T08:51:45.657Z,97041.75
2023-04-15T08:54:14.456Z,97036.75
2023-04-15T08:56:43.376Z,97050.28
2023-04-15T08:59:12.637Z,97048.44
2023-04-15T09:01:42.318Z,97053.47
2023-04-15T09:04:12.633Z,97052.50
2023-04-15T09:06:44.208Z,97048.56
2023-04-15T09:09:14.504Z,97040.94
2023-04-15T09:11:43.176Z,97052.31
2023-04-15T09:14:11.403Z,97048.69
2023-04-15T09:17:01.496Z,97061.31
2023-04-15T09:19:30.734Z,97062.31
2023-04-15T09:22:02.211Z,97056.66
2023-04-15T09:24:39.038Z,97051.44
2023-04-15T09:27:07.850Z,97060.50
2023-04-15T09:29:37.179Z,97067.44
2023-04-15T09:32:13.100Z,97060.88
2023-04-15T09:34:41.300Z,97076.66
2023-04-15T09:37:24.630Z,97073.31
2023-04-15T09:40:00.100Z,97075.75
2023-04-15T09:42:28.891Z,97084.16
2023-04-15T09:44:57.394Z,97083.09
2023-04-15T09:47:30.416Z,97083.81
2023-04-15T09:49:59.532Z,97085.06
2023-04-15T09:52:29.524Z,97094.75
2023-04-15T09:54:59.778Z,97084.38
2023-04-15T09:57:35.830Z,97094.44
2023-04-15T10:00:06.249Z,97097.97
2023-04-15T10:02:35.579Z,97092.97
2023-04-15T10:05:04.798Z,97102.16
2023-04-15T10:07:35.340Z,97091.47
2023-04-15T10:10:05.678Z,97102.00
2023-04-15T10:12:34.528Z,97100.97
2023-04-15T10:15:06.683Z,97098.25
2023-04-15T10:17:35.670Z,97105.78
2023-04-15T10:20:05.343Z,97117.59
2023-04-15T10:22:36.285Z,97118.78
2023-04-15T10:25:04.881Z,97118.59
2023-04-15T10:27:33.983Z,97108.41
2023-04-15T10:30:03.206Z,97108.88
2023-04-15T10:32:32.091Z,97114.34
2023-04-15T10:35:00.965Z,97112.63
2023-04-15T10:37:37.981Z,97107.19
2023-04-15T10:40:31.662Z,97113.31
2023-04-15T10:43:02.331Z,97121.50
2023-04-15T10:45:34.858Z,97121.69
2023-04-15T10:48:04.683Z,97136.25
2023-04-15T10:50:34.049Z,97122.84
2023-04-15T10:53:06.183Z,97115.75
2023-04-15T10:55:36.004Z,97120.84
2023-04-15T10:58:04.613Z,97118.94
2023-04-15T11:00:35.462Z,97111.22
2023-04-15T11:03:08.571Z,97112.06
2023-04-15T11:05:54.037Z,97121.63
2023-04-15T11:08:59.303Z,97116.84
2023-04-15T11:12:04.924Z,97123.09
2023-04-15T11:14:35.733Z,97114.03
2023-04-15T11:17:04.699Z,97115.50
2023-04-15T11:19:40.236Z,97120.50
2023-04-15T11:22:09.966Z,97113.97
2023-04-15T11:24:50.752Z,97126.22
2023-04-15T11:27:23.532Z,97119.91
2023-04-15T11:29:52.562Z,97122.34
2023-04-15T11:32:23.226Z,97122.78
2023-04-15T11:34:53.761Z,97131.41
2023-04-15T11:37:30.616Z,97128.72
2023-04-15T11:40:00.587Z,97138.03
2023-04-15T11:42:39.298Z,97140.50
2023-04-15T11:45:17.010Z,97135.63
2023-04-15T11:47:45.316Z,97136.38
2023-04-15T11:50:20.906Z,97130.50
2023-04-15T11:52:55.962Z,97144.13
2023-04-15T11:55:26.820Z,97138.25
2023-04-15T11:58:09.528Z,97135.69
2023-04-15T12:00:38.113Z,97130.59
2023-04-15T12:03:18.465Z,97139.50
2023-04-15T12:06:17.967Z,97145.69
2023-04-15T12:09:17.030Z,97141.31
2023-04-15T12:11:48.615Z,97138.03
2023-04-15T12:14:24.162Z,97136.19
2023-04-15T12:16:55.318Z,97145.47
2023-04-15T12:19:28.827Z,97162.38
2023-04-15T12:22:01.166Z,97154.03
2023-04-15T12:24:32.596Z,97162.38
2023-04-15T12:27:05.900Z,97156.28
2023-04-15T12:29:36.110Z,97156.09
2023-04-15T12:32:07.874Z,97158.09
2023-04-15T12:34:38.850Z,97162.28
2023-04-15T12:37:10.033Z,97163.72
2023-04-15T12:39:39.886Z,97173.69
2023-04-15T12:42:10.585Z,97171.56
2023-04-15T12:44:39.435Z,97179.34
2023-04-15T12:47:09.233Z,97181.72
2023-04-15T12:49:37.828Z,97181.97
2023-04-15T12:52:06.603Z,97184.03
2023-04-15T12:54:34.859Z,97191.16
2023-04-15T12:57:05.932Z,97180.25
2023-04-15T12:59:36.746Z,97180.91
2023-04-15T13:02:05.780Z,97185.63
2023-04-15T13:04:34.474Z,97188.72
2023-04-15T13:07:03.419Z,97188.03
2023-04-15T13:09:31.749Z,97185.88
2023-04-15T13:12:00.265Z,97190.00
2023-04-15T13:14:28.633Z,97193.16
2023-04-15T13:16:59.764Z,97206.47
2023-04-15T13:19:27.971Z,97197.22
2023-04-15T13:21:56.344Z,97195.75
2023-04-15T13:24:24.620Z,97195.09
2023-04-15T13:26:53.608Z,97197.97
2023-04-15T13:29:22.318Z,97209.44
2023-04-15T13:31:50.866Z,97218.00
2023-04-15T13:34:20.512Z,97209.44
2023-04-15T13:36:49.821Z,97211.13
2023-04-15T13:39:18.510Z,97216.31
2023-04-15T13:41:48.701Z,97221.28
2023-04-15T13:44:17.455Z,97217.81
2023-04-15T13:46:45.618Z,97228.97
2023-04-15T13:49:14.654Z,97230.03
2023-04-15T13:51:44.431Z,97224.66
2023-04-15T13:54:13.495Z,97227.94
2023-04-15T13:56:41.611Z,97228.53
2023-04-15T13:59:09.954Z,97224.16
2023-04-15T14:01:38.106Z,97228.03
2023-04-15T14:04:06.860Z,97233.97
2023-04-15T14:06:35.855Z,97240.31
2023-04-15T14:09:05.799Z,97236.47
2023-04-15T14:11:35.640Z,97239.75
2023-04-15T14:14:04.554Z,97248.03
2023-04-15T14:16:34.504Z,97249.88
2023-04-15T14:19:03.871Z,97263.75
2023-04-15T14:21:32.683Z,97262.06
2023-04-15T14:24:01.010Z,97271.41
2023-04-15T14:26:30.766Z,97275.63
2023-04-15T14:28:59.166Z,97278.22
2023-04-15T14:31:27.814Z,97285.06
2023-04-15T14:33:56.191Z,97297.34
2023-04-15T14:36:24.804Z,97297.25
2023-04-15T14:38:54.016Z,97287.78
2023-04-15T14:41:22.550Z,97290.22
2023-04-15T14:43:52.255Z,97279.44
2023-04-15T14:46:20.736Z,97299.84
2023-04-15T14:48:49.200Z,97296.66
2023-04-15T14:51:17.619Z,97302.75
2023-04-15T14:53:46.534Z,97306.16
2023-04-15T14:56:14.727Z,97318.88
2023-04-15T14:58:43.163Z,97315.28
2023-04-15T15:01:12.917Z,97315.47
2023-04-15T15:03:41.719Z,97322.50
2023-04-15T15:06:10.148Z,97324.97
2023-04-15T15:08:38.835Z,97329.06
2023-04-15T15:11:06.990Z,97326.53
2023-04-15T15:13:36.691Z,97335.13
2023-04-15T15:16:05.032Z,97338.69
2023-04-15T15:18:34.861Z,97340.28
2023-04-15T15:21:03.422Z,97337.84
2023-04-15T15:23:32.117Z,97348.00
2023-04-15T15:26:01.009Z,97354.03
2023-04-15T15:28:29.165Z,97350.72
2023-04-15T15:30:57.534Z,97358.09
2023-04-15T15:33:26.114Z,97359.66
2023-04-15T15:35:56.705Z,97363.25
2023-04-15T15:38:24.867Z,97368.50
2023-04-15T15:40:53.564Z,97364.38
2023-04-15T15:43:22.065Z,97369.38
2023-04-15T15:45:52.982Z,97379.59
2023-04-15T15:48:21.372Z,97380.28
2023-04-15T15:50:49.716Z,97376.81
2023-04-15T15:53:21.116Z,97383.31
2023-04-15T15:55:49.391Z,97374.94
2023-04-15T15:58:17.678Z,97384.50
2023-04-15T16:00:46.199Z,97381.66
2023-04-15T16:03:14.681Z,97385.91
2023-04-15T16:05:42.934Z,97388.56
2023-04-15T16:08:11.117Z,97399.63
2023-04-15T16:10:41.018Z,97401.28
2023-04-15T16:13:10.941Z,97408.06
2023-04-15T16:15:39.071Z,97410.63
2023-04-15T16:18:07.365Z,97412.53
2023-04-15T16:20:35.644Z,97417.78
2023-04-15T16:23:10.570Z,97422.84
2023-04-15T16:25:40.179Z,97411.16
2023-04-15T16:28:22.576Z,97423.41
2023-04-15T16:30:54.430Z,97429.09
2023-04-15T16:33:22.992Z,97429.69
2023-04-15T16:35:51.080Z,97439.09
2023-04-15T16:38:19.398Z,97429.09
2023-04-15T16:40:49.001Z,97440.22
2023-04-15T16:43:17.264Z,97443.50
2023-04-15T16:45:51.015Z,97446.16
2023-04-15T16:48:20.330Z,97447.97
2023-04-15T16:50:49.049Z,97450.69
2023-04-15T16:53:17.534Z,97461.69
2023-04-15T16:55:45.865Z,97444.69
2023-04-15T16:58:15.565Z,97453.09
2023-04-15T17:00:43.823Z,97463.22
2023-04-15T17:03:12.320Z,97462.41
2023-04-15T17:05:42.355Z,97473.47
2023-04-15T17:08:10.898Z,97465.72
2023-04-15T17:10:39.227Z,97478.47
2023-04-15T17:13:07.414Z,97482.72
2023-04-15T17:15:37.250Z,97478.41
2023-04-15T17:18:06.173Z,97490.94
2023-04-15T17:20:34.424Z,97490.03
2023-04-15T17:23:02.498Z,97487.44
2023-04-15T17:25:31.882Z,97489.13
2023-04-15T17:27:59.955Z,97491.00
2023-04-15T17:30:28.338Z,97501.84
2023-04-15T17:32:58.034Z,97494.25
2023-04-15T17:35:26.904Z,97503.56
2023-04-15T17:37:55.101Z,97502.56
2023-04-15T17:40:23.154Z,97506.88
2023-04-15T17:42:51.693Z,97503.41
2023-04-15T17:45:19.774Z,97512.81
2023-04-15T17:47:50.279Z,97507.63
2023-04-15T17:50:20.064Z,97518.69
2023-04-15T17:52:48.774Z,97521.25
2023-04-15T17:55:17.299Z,97520.44
2023-04-15T17:57:46.635Z,97528.03
2023-04-15T18:00:17.711Z,97522.97
2023-04-15T18:02:46.114Z,97539.22
2023-04-15T18:05:15.011Z,97541.84
2023-04-15T18:07:45.065Z,97536.84
2023-04-15T18:10:13.604Z,97544.59
2023-04-15T18:12:42.353Z,97540.31
2023-04-15T18:15:12.640Z,97541.97
2023-04-15T18:17:41.160Z,97544.53
2023-04-15T18:20:09.728Z,97562.47
2023-04-15T18:22:38.113Z,97561.59
2023-04-15T18:25:09.553Z,97564.09
2023-04-15T18:27:39.524Z,97556.66
2023-04-15T18:30:09.118Z,97570.91
2023-04-15T18:32:37.917Z,97576.94
2023-04-15T18:35:07.828Z,97582.06
2023-04-15T18:37:36.212Z,97585.50
2023-04-15T18:40:04.992Z,97588.13
2023-04-15T18:42:34.783Z,97591.47
2023-04-15T18:45:02.915Z,97583.13
2023-04-15T18:47:31.827Z,97594.84
2023-04-15T18:50:00.220Z,97601.69
2023-04-15T18:52:28.259Z,97603.34
2023-04-15T18:54:56.735Z,97609.28
2023-04-15T18:57:31.766Z,97603.34
2023-04-15T19:00:04.773Z,97613.56
2023-04-15T19:02:32.913Z,97616.03
2023-04-15T19:05:04.232Z,97623.69
2023-04-15T19:07:32.690Z,97628.03
2023-04-15T19:10:01.151Z,97630.53
2023-04-15T19:12:30.168Z,97634.88
2023-04-15T19:14:58.876Z,97633.16
2023-04-15T19:17:28.609Z,97637.53
2023-04-15T19:19:56.839Z,97645.16
2023-04-15T19:22:25.341Z,97644.28
2023-04-15T19:24:53.812Z,97641.72
2023-04-15T19:27:22.328Z,97640.22
2023-04-15T19:29:50.572Z,97642.63
2023-04-15T19:32:19.196Z,97636.84
2023-04-15T19:34:55.527Z,97656.28
2023-04-15T19:37:24.347Z,97654.56
2023-04-15T19:39:52.531Z,97642.78
2023-04-15T19:42:21.020Z,97647.91
2023-04-15T19:44:49.309Z,97654.69
2023-04-15T19:47:18.402Z,97666.53
2023-04-15T19:49:46.982Z,97664.09
2023-04-15T19:52:16.802Z,97667.41
2023-04-15T19:54:45.943Z,97674.28
2023-04-15T19:57:14.470Z,97669.16
2023-04-15T19:59:43.477Z,97671.75
2023-04-15T20:02:11.998Z,97667.50
2023-04-15T20:04:40.341Z,97670.03
2023-04-15T20:07:10.006Z,97682.75
2023-04-15T20:09:39.862Z,97679.47
2023-04-15T20:12:50.532Z,97691.41
2023-04-15T20:14:56.860Z,97686.25
2023-04-15T20:17:25.003Z,97688.84
2023-04-15T20:19:53.616Z,97690.59
2023-04-15T20:22:21.917Z,97693.97
2023-04-15T20:24:52.185Z,97688.81
2023-04-15T20:27:25.477Z,97690.59
2023-04-15T20:29:53.572Z,97692.25
2023-04-15T20:32:24.323Z,97694.75
2023-04-15T20:34:52.688Z,97691.44
2023-04-15T20:37:21.263Z,97695.69
2023-04-15T20:39:49.938Z,97700.81
2023-04-15T20:42:20.836Z,97707.66
2023-04-15T20:44:49.331Z,97697.50
2023-04-15T20:47:18.667Z,97690.00
2023-04-15T20:49:47.586Z,97711.97
2023-04-15T20:52:16.429Z,97709.50
2023-04-15T20:54:47.011Z,97705.97
2023-04-15T20:57:15.613Z,97717.13
2023-04-15T20:59:45.589Z,97711.97
2023-04-15T21:02:14.162Z,97716.22
2023-04-15T21:04:42.549Z,97712.91
2023-04-15T21:07:11.268Z,97709.47
2023-04-15T21:09:41.967Z,97713.75
2023-04-15T21:12:11.740Z,97708.63
2023-04-15T21:14:42.076Z,97724.81
2023-04-15T21:17:12.134Z,97721.28
2023-04-15T21:19:40.792Z,97718.75
2023-04-15T21:22:09.290Z,97731.63
2023-04-15T21:24:37.662Z,97727.25
2023-04-15T21:27:06.029Z,97731.44
2023-04-15T21:29:34.303Z,97740.06
2023-04-15T21:32:02.729Z,97746.06
2023-04-15T21:34:32.567Z,97743.53
2023-04-15T21:37:01.296Z,97745.22
2023-04-15T21:39:30.421Z,97741.88
2023-04-15T21:41:59.652Z,97746.09
2023-04-15T21:44:28.096Z,97750.31
2023-04-15T21:46:56.613Z,97750.34
2023-04-15T21:49:25.600Z,97762.25
2023-04-15T21:51:59.539Z,97758.06
2023-04-15T21:54:28.384Z,97752.97
2023-04-15T21:56:58.110Z,97755.47
2023-04-15T21:59:27.539Z,97747.03
2023-04-15T22:01:56.162Z,97763.06
2023-04-15T22:04:25.266Z,97766.56
2023-04-15T22:06:56.129Z,97763.13
2023-04-15T22:09:25.058Z,97769.00
2023-04-15T22:11:53.757Z,97766.41
2023-04-15T22:14:22.677Z,97766.44
2023-04-15T22:16:51.301Z,97769.91
2023-04-15T22:19:19.787Z,97784.31
2023-04-15T22:21:48.459Z,97780.03
2023-04-15T22:24:34.725Z,97781.75
2023-04-15T22:27:06.890Z,97783.44
2023-04-15T22:29:35.223Z,97780.03
2023-04-15T22:32:03.906Z,97783.47
2023-04-15T22:34:32.424Z,97785.16
2023-04-15T22:37:00.987Z,97794.53
2023-04-15T22:39:31.044Z,97779.34
2023-04-15T22:41:59.945Z,97804.75
2023-04-15T22:44:28.801Z,97805.56
2023-04-15T22:46:58.156Z,97808.16
2023-04-15T22:49:27.262Z,97805.56
2023-04-15T22:51:56.097Z,97806.34
2023-04-15T22:54:24.926Z,97813.13
2023-04-15T22:56:55.223Z,97810.63
2023-04-15T22:59:24.103Z,97815.75
2023-04-15T23:01:53.010Z,97808.13
2023-04-15T23:04:23.108Z,97818.34
2023-04-15T23:06:56.841Z,97810.72
2023-04-15T23:09:25.748Z,97812.31
2023-04-15T23:11:57.914Z,97818.25
2023-04-15T23:14:28.268Z,97819.13
2023-04-15T23:16:58.806Z,97824.25
2023-04-15T23:19:28.586Z,97825.09
2023-04-15T23:21:57.385Z,97822.56
2023-04-15T23:24:26.007Z,97828.53
2023-04-15T23:26:57.921Z,97836.22
2023-04-15T23:29:26.988Z,97832.81
2023-04-15T23:32:07.178Z,97835.31
2023-04-15T23:34:36.242Z,97837.03
2023-04-15T23:37:04.985Z,97837.03
2023-04-15T23:39:34.034Z,97820.06
2023-04-15T23:42:04.854Z,97843.84
2023-04-15T23:44:33.156Z,97830.13
2023-04-15T23:47:02.157Z,97846.38
2023-04-15T23:49:30.510Z,97847.22
2023-04-15T23:51:59.500Z,97828.47
2023-04-15T23:54:28.217Z,97843.88
2023-04-15T23:56:57.046Z,97837.09
2023-04-15T23:59:27.141Z,97848.09
